createdAt,value
2022-10-04T00:00:26.626Z,952.6
2022-10-04T00:01:28.573Z,952.6
2022-10-04T00:02:30.713Z,952.6
2022-10-04T00:03:32.648Z,952.6
2022-10-04T00:04:34.177Z,952.6
2022-10-04T00:05:35.718Z,952.6
2022-10-04T00:06:37.537Z,952.6
2022-10-04T00:07:39.535Z,952.6
2022-10-04T00:08:41.097Z,952.6
2022-10-04T00:09:42.689Z,952.7
2022-10-04T00:10:47.030Z,952.7
2022-10-04T00:11:48.578Z,952.6
2022-10-04T00:12:50.240Z,952.6
2022-10-04T00:13:51.887Z,952.7
2022-10-04T00:14:53.617Z,952.6
2022-10-04T00:15:55.614Z,952.7
2022-10-04T00:16:57.378Z,952.7
2022-10-04T00:17:59.064Z,952.7
2022-10-04T00:19:00.607Z,952.7
2022-10-04T00:20:02.260Z,952.7
2022-10-04T00:21:03.906Z,952.7
2022-10-04T00:22:05.635Z,952.6
2022-10-04T00:23:07.389Z,952.7
2022-10-04T00:24:09.035Z,952.6
2022-10-04T00:25:10.577Z,952.6
2022-10-04T00:26:12.241Z,952.7
2022-10-04T00:27:13.985Z,952.6
2022-10-04T00:28:15.849Z,952.6
2022-10-04T00:29:17.629Z,952.6
2022-10-04T00:30:19.316Z,952.6
2022-10-04T00:31:21.463Z,952.5
2022-10-04T00:32:23.230Z,952.6
2022-10-04T00:33:24.875Z,952.5
2022-10-04T00:34:30.577Z,952.5
2022-10-04T00:35:32.161Z,952.5
2022-10-04T00:36:33.805Z,952.5
2022-10-04T00:37:35.351Z,952.5
2022-10-04T00:38:36.864Z,952.5
2022-10-04T00:39:38.547Z,952.4
2022-10-04T00:40:40.144Z,952.4
2022-10-04T00:41:42.698Z,952.4
2022-10-04T00:42:44.859Z,952.4
2022-10-04T00:43:46.566Z,952.3
2022-10-04T00:44:48.311Z,952.4
2022-10-04T00:45:50.251Z,952.4
2022-10-04T00:46:52.229Z,952.4
2022-10-04T00:47:53.817Z,952.4
2022-10-04T00:48:55.360Z,952.3
2022-10-04T00:49:57.048Z,952.3
2022-10-04T00:50:58.691Z,952.3
2022-10-04T00:52:00.278Z,952.3
2022-10-04T00:53:02.083Z,952.3
2022-10-04T00:54:03.601Z,952.2
2022-10-04T00:55:05.144Z,952.2
2022-10-04T00:56:06.809Z,952.2
2022-10-04T00:57:08.536Z,952.2
2022-10-04T00:58:10.160Z,952.2
2022-10-04T00:59:11.699Z,952.2
2022-10-04T01:00:13.478Z,952.2
2022-10-04T01:01:15.464Z,952.2
2022-10-04T01:02:17.715Z,952.2
2022-10-04T01:03:19.467Z,952.3
2022-10-04T01:04:21.003Z,952.3
2022-10-04T01:05:22.646Z,952.3
2022-10-04T01:06:24.186Z,952.3
2022-10-04T01:07:25.812Z,952.2
2022-10-04T01:08:27.353Z,952.3
2022-10-04T01:09:29.011Z,952.3
2022-10-04T01:10:30.672Z,952.3
2022-10-04T01:11:32.201Z,952.3
2022-10-04T01:12:33.840Z,952.3
2022-10-04T01:13:35.542Z,952.3
2022-10-04T01:14:37.247Z,952.3
2022-10-04T01:15:39.143Z,952.3
2022-10-04T01:16:41.028Z,952.2
2022-10-04T01:17:42.716Z,952.3
2022-10-04T01:18:44.444Z,952.3
2022-10-04T01:19:46.081Z,952.2
2022-10-04T01:20:47.629Z,952.3
2022-10-04T01:21:49.176Z,952.2
2022-10-04T01:22:50.765Z,952.3
2022-10-04T01:23:52.359Z,952.2
2022-10-04T01:24:53.900Z,952.2
2022-10-04T01:25:55.444Z,952.2
2022-10-04T01:26:57.087Z,952.2
2022-10-04T01:27:58.827Z,952.2
2022-10-04T01:29:00.568Z,952.2
2022-10-04T01:30:02.208Z,952.2
2022-10-04T01:31:04.118Z,952.1
2022-10-04T01:32:06.215Z,952.2
2022-10-04T01:33:07.909Z,952.2
2022-10-04T01:34:09.732Z,952.2
2022-10-04T01:35:11.268Z,952.2
2022-10-04T01:36:12.999Z,952.2
2022-10-04T01:37:14.524Z,952.2
2022-10-04T01:38:16.064Z,952.3
2022-10-04T01:39:17.940Z,952.2
2022-10-04T01:40:19.545Z,952.2
2022-10-04T01:41:21.155Z,952.2
2022-10-04T01:42:22.748Z,952.2
2022-10-04T01:43:24.435Z,952.2
2022-10-04T01:44:25.980Z,952.2
2022-10-04T01:45:27.588Z,952.2
2022-10-04T01:46:29.602Z,952.2
2022-10-04T01:47:31.612Z,952.2
2022-10-04T01:48:33.271Z,952.2
2022-10-04T01:49:34.955Z,952.2
2022-10-04T01:50:36.646Z,952.2
2022-10-04T01:51:38.313Z,952.2
2022-10-04T01:52:39.957Z,952.1
2022-10-04T01:53:41.599Z,952.2
2022-10-04T01:54:43.254Z,952.2
2022-10-04T01:55:44.975Z,952.2
2022-10-04T01:56:46.591Z,952.2
2022-10-04T01:57:48.136Z,952.2
2022-10-04T01:58:49.911Z,952.2
2022-10-04T01:59:51.636Z,952.2
2022-10-04T02:00:56.134Z,952.2
2022-10-04T02:01:57.989Z,952.2
2022-10-04T02:02:59.566Z,952.3
2022-10-04T02:04:01.362Z,952.3
2022-10-04T02:05:03.200Z,952.3
2022-10-04T02:06:04.974Z,952.3
2022-10-04T02:07:06.575Z,952.3
2022-10-04T02:08:08.120Z,952.3
2022-10-04T02:09:09.770Z,952.3
2022-10-04T02:10:11.310Z,952.4
2022-10-04T02:11:12.936Z,952.3
2022-10-04T02:12:14.478Z,952.3
2022-10-04T02:13:16.036Z,952.3
2022-10-04T02:14:17.764Z,952.4
2022-10-04T02:15:19.311Z,952.4
2022-10-04T02:16:21.360Z,952.4
2022-10-04T02:17:23.209Z,952.4
2022-10-04T02:18:24.857Z,952.4
2022-10-04T02:19:26.858Z,952.4
2022-10-04T02:20:28.443Z,952.4
2022-10-04T02:21:30.080Z,952.4
2022-10-04T02:22:31.633Z,952.5
2022-10-04T02:23:33.192Z,952.4
2022-10-04T02:24:34.852Z,952.5
2022-10-04T02:25:36.434Z,952.4
2022-10-04T02:26:38.191Z,952.4
2022-10-04T02:27:39.932Z,952.4
2022-10-04T02:28:41.473Z,952.4
2022-10-04T02:29:43.190Z,952.4
2022-10-04T02:30:44.877Z,952.5
2022-10-04T02:31:47.102Z,952.4
2022-10-04T02:32:48.814Z,952.4
2022-10-04T02:33:50.576Z,952.4
2022-10-04T02:34:52.451Z,952.5
2022-10-04T02:35:54.187Z,952.5
2022-10-04T02:36:55.828Z,952.5
2022-10-04T02:37:57.370Z,952.5
2022-10-04T02:38:58.990Z,952.5
2022-10-04T02:40:00.839Z,952.5
2022-10-04T02:41:02.449Z,952.6
2022-10-04T02:42:04.122Z,952.6
2022-10-04T02:43:05.734Z,952.6
2022-10-04T02:44:07.301Z,952.6
2022-10-04T02:45:08.880Z,952.6
2022-10-04T02:46:10.967Z,952.6
2022-10-04T02:47:12.787Z,952.7
2022-10-04T02:48:14.434Z,952.7
2022-10-04T02:49:16.157Z,952.7
2022-10-04T02:50:17.842Z,952.7
2022-10-04T02:51:19.597Z,952.7
2022-10-04T02:52:21.193Z,952.8
2022-10-04T02:53:22.941Z,952.7
2022-10-04T02:54:24.599Z,952.7
2022-10-04T02:55:26.260Z,952.8
2022-10-04T02:56:27.811Z,952.7
2022-10-04T02:57:29.445Z,952.7
2022-10-04T02:58:31.167Z,952.8
2022-10-04T02:59:35.986Z,952.7
2022-10-04T03:00:37.822Z,952.8
2022-10-04T03:01:40.012Z,952.8
2022-10-04T03:02:42.487Z,952.8
2022-10-04T03:03:44.168Z,952.7
2022-10-04T03:04:45.750Z,952.8
2022-10-04T03:05:47.449Z,952.7
2022-10-04T03:06:49.152Z,952.8
2022-10-04T03:07:50.808Z,952.7
2022-10-04T03:08:52.354Z,952.8
2022-10-04T03:09:53.944Z,952.9
2022-10-04T03:10:55.618Z,952.9
2022-10-04T03:11:57.197Z,952.8
2022-10-04T03:12:58.935Z,952.9
2022-10-04T03:14:00.579Z,952.8
2022-10-04T03:15:02.192Z,952.8
2022-10-04T03:16:04.212Z,952.8
2022-10-04T03:17:05.978Z,952.9
2022-10-04T03:18:07.571Z,952.9
2022-10-04T03:19:09.293Z,952.9
2022-10-04T03:20:10.940Z,952.8
2022-10-04T03:21:12.803Z,952.9
2022-10-04T03:22:14.675Z,952.9
2022-10-04T03:23:19.088Z,952.9
2022-10-04T03:24:20.628Z,952.9
2022-10-04T03:25:22.439Z,952.9
2022-10-04T03:26:24.190Z,952.9
2022-10-04T03:27:25.858Z,952.9
2022-10-04T03:28:27.733Z,952.9
2022-10-04T03:29:29.704Z,952.9
2022-10-04T03:30:31.293Z,952.9
2022-10-04T03:31:33.228Z,952.9
2022-10-04T03:32:34.951Z,952.9
2022-10-04T03:33:36.503Z,952.9
2022-10-04T03:34:38.236Z,952.9
2022-10-04T03:35:39.814Z,952.9
2022-10-04T03:36:41.609Z,952.9
2022-10-04T03:37:43.246Z,953
2022-10-04T03:38:44.793Z,953
2022-10-04T03:39:46.372Z,953
2022-10-04T03:40:47.964Z,953
2022-10-04T03:41:49.515Z,953
2022-10-04T03:42:51.062Z,953
2022-10-04T03:43:52.612Z,953
2022-10-04T03:44:54.163Z,953.1
2022-10-04T03:45:56.422Z,953
2022-10-04T03:46:58.674Z,953
2022-10-04T03:48:00.298Z,953.1
2022-10-04T03:49:01.860Z,953.1
2022-10-04T03:50:03.396Z,953.1
2022-10-04T03:51:05.428Z,953.1
2022-10-04T03:52:07.289Z,953.1
2022-10-04T03:53:09.012Z,953.1
2022-10-04T03:54:10.575Z,953
2022-10-04T03:55:12.233Z,953.1
2022-10-04T03:56:13.805Z,953.1
2022-10-04T03:57:15.460Z,953.1
2022-10-04T03:58:17.016Z,953.1
2022-10-04T03:59:18.700Z,953
2022-10-04T04:00:22.980Z,953
2022-10-04T04:01:24.886Z,953
2022-10-04T04:02:26.973Z,953.1
2022-10-04T04:03:28.847Z,953
2022-10-04T04:04:30.401Z,953
2022-10-04T04:05:32.051Z,953
2022-10-04T04:06:33.781Z,953
2022-10-04T04:07:35.427Z,953
2022-10-04T04:08:37.243Z,953
2022-10-04T04:09:38.776Z,953
2022-10-04T04:10:40.387Z,953
2022-10-04T04:11:42.924Z,953.1
2022-10-04T04:12:45.510Z,953.1
2022-10-04T04:13:47.136Z,953.1
2022-10-04T04:14:48.746Z,953.1
2022-10-04T04:15:50.703Z,953.1
2022-10-04T04:16:52.591Z,953.1
2022-10-04T04:17:54.254Z,953.1
2022-10-04T04:18:55.996Z,953.1
2022-10-04T04:19:57.604Z,953.2
2022-10-04T04:20:59.280Z,953.2
2022-10-04T04:22:01.018Z,953.2
2022-10-04T04:23:02.744Z,953.2
2022-10-04T04:24:04.615Z,953.2
2022-10-04T04:25:06.159Z,953.2
2022-10-04T04:26:07.689Z,953.2
2022-10-04T04:27:09.274Z,953.2
2022-10-04T04:28:11.240Z,953.2
2022-10-04T04:29:12.974Z,953.3
2022-10-04T04:30:14.723Z,953.3
2022-10-04T04:31:16.757Z,953.3
2022-10-04T04:32:18.520Z,953.3
2022-10-04T04:33:21.444Z,953.4
2022-10-04T04:34:23.061Z,953.3
2022-10-04T04:35:24.679Z,953.3
2022-10-04T04:36:26.273Z,953.4
2022-10-04T04:37:28.051Z,953.3
2022-10-04T04:38:29.954Z,953.4
2022-10-04T04:39:31.611Z,953.3
2022-10-04T04:40:33.315Z,953.4
2022-10-04T04:41:34.858Z,953.4
2022-10-04T04:42:36.461Z,953.4
2022-10-04T04:43:38.143Z,953.4
2022-10-04T04:44:39.713Z,953.4
2022-10-04T04:45:41.521Z,953.4
2022-10-04T04:46:43.817Z,953.4
2022-10-04T04:47:45.691Z,953.4
2022-10-04T04:48:47.236Z,953.4
2022-10-04T04:49:48.819Z,953.4
2022-10-04T04:50:50.486Z,953.4
2022-10-04T04:51:52.126Z,953.4
2022-10-04T04:52:53.748Z,953.4
2022-10-04T04:53:55.442Z,953.4
2022-10-04T04:54:57.166Z,953.4
2022-10-04T04:56:12.717Z,953.4
2022-10-04T04:57:19.522Z,953.4
2022-10-04T04:58:21.286Z,953.5
2022-10-04T04:59:23.419Z,953.5
2022-10-04T05:00:28.214Z,953.5
2022-10-04T05:01:30.083Z,953.5
2022-10-04T05:02:32.171Z,953.5
2022-10-04T05:03:34.108Z,953.4
2022-10-04T05:04:38.791Z,953.5
2022-10-04T05:05:40.320Z,953.4
2022-10-04T05:06:41.867Z,953.5
2022-10-04T05:07:43.507Z,953.5
2022-10-04T05:08:45.365Z,953.4
2022-10-04T05:09:47.154Z,953.5
2022-10-04T05:10:48.776Z,953.5
2022-10-04T05:11:50.331Z,953.5
2022-10-04T05:12:51.880Z,953.5
2022-10-04T05:13:53.464Z,953.5
2022-10-04T05:14:55.163Z,953.5
2022-10-04T05:15:56.810Z,953.5
2022-10-04T05:16:58.469Z,953.5
2022-10-04T05:18:00.532Z,953.5
2022-10-04T05:19:02.241Z,953.4
2022-10-04T05:20:04.490Z,953.5
2022-10-04T05:21:06.249Z,953.5
2022-10-04T05:22:07.934Z,953.5
2022-10-04T05:23:09.636Z,953.5
2022-10-04T05:24:11.963Z,953.5
2022-10-04T05:25:13.768Z,953.5
2022-10-04T05:26:15.351Z,953.5
2022-10-04T05:27:17.018Z,953.5
2022-10-04T05:28:19.063Z,953.5
2022-10-04T05:29:20.940Z,953.5
2022-10-04T05:30:22.558Z,953.5
2022-10-04T05:31:24.483Z,953.5
2022-10-04T05:32:26.285Z,953.6
2022-10-04T05:33:34.175Z,953.6
2022-10-04T05:34:35.832Z,953.6
2022-10-04T05:35:37.451Z,953.6
2022-10-04T05:36:38.993Z,953.6
2022-10-04T05:37:40.522Z,953.6
2022-10-04T05:38:42.098Z,953.7
2022-10-04T05:39:43.827Z,953.7
2022-10-04T05:40:45.531Z,953.6
2022-10-04T05:41:48.039Z,953.6
2022-10-04T05:42:49.579Z,953.6
2022-10-04T05:43:51.118Z,953.7
2022-10-04T05:44:52.721Z,953.7
2022-10-04T05:45:54.618Z,953.8
2022-10-04T05:46:59.234Z,953.7
2022-10-04T05:48:00.776Z,953.7
2022-10-04T05:49:02.449Z,953.7
2022-10-04T05:50:04.030Z,953.8
2022-10-04T05:51:05.627Z,953.8
2022-10-04T05:52:07.295Z,953.8
2022-10-04T05:53:08.915Z,953.8
2022-10-04T05:54:10.546Z,953.8
2022-10-04T05:55:12.301Z,953.8
2022-10-04T05:56:13.950Z,953.9
2022-10-04T05:57:15.564Z,953.8
2022-10-04T05:58:17.110Z,953.9
2022-10-04T05:59:18.875Z,953.9
2022-10-04T06:00:20.541Z,953.9
2022-10-04T06:01:22.425Z,953.9
2022-10-04T06:02:24.786Z,953.9
2022-10-04T06:03:26.444Z,953.9
2022-10-04T06:04:28.028Z,954
2022-10-04T06:05:29.759Z,953.9
2022-10-04T06:06:31.301Z,953.9
2022-10-04T06:07:32.977Z,954
2022-10-04T06:08:34.512Z,954
2022-10-04T06:09:36.271Z,954
2022-10-04T06:10:38.000Z,954
2022-10-04T06:11:39.782Z,954.1
2022-10-04T06:12:44.971Z,954.1
2022-10-04T06:13:46.526Z,954.1
2022-10-04T06:14:48.184Z,954.1
2022-10-04T06:15:49.727Z,954.1
2022-10-04T06:16:51.615Z,954.1
2022-10-04T06:17:53.416Z,954.2
2022-10-04T06:18:55.052Z,954.2
2022-10-04T06:19:56.594Z,954.2
2022-10-04T06:20:58.237Z,954.2
2022-10-04T06:21:59.797Z,954.2
2022-10-04T06:23:01.432Z,954.2
2022-10-04T06:24:03.175Z,954.2
2022-10-04T06:25:04.806Z,954.2
2022-10-04T06:26:06.464Z,954.2
2022-10-04T06:27:08.127Z,954.3
2022-10-04T06:28:10.210Z,954.3
2022-10-04T06:29:11.863Z,954.3
2022-10-04T06:30:13.453Z,954.3
2022-10-04T06:31:15.335Z,954.3
2022-10-04T06:32:17.155Z,954.3
2022-10-04T06:33:18.799Z,954.4
2022-10-04T06:34:20.578Z,954.4
2022-10-04T06:35:22.294Z,954.3
2022-10-04T06:36:23.942Z,954.3
2022-10-04T06:37:25.472Z,954.3
2022-10-04T06:38:26.991Z,954.3
2022-10-04T06:39:28.565Z,954.3
2022-10-04T06:40:30.259Z,954.4
2022-10-04T06:41:31.963Z,954.3
2022-10-04T06:42:33.646Z,954.3
2022-10-04T06:43:35.271Z,954.3
2022-10-04T06:44:37.023Z,954.3
2022-10-04T06:45:38.922Z,954.3
2022-10-04T06:46:40.588Z,954.3
2022-10-04T06:47:42.355Z,954.3
2022-10-04T06:48:43.953Z,954.4
2022-10-04T06:49:45.537Z,954.4
2022-10-04T06:50:47.113Z,954.4
2022-10-04T06:51:48.751Z,954.4
2022-10-04T06:52:50.501Z,954.4
2022-10-04T06:53:52.220Z,954.4
2022-10-04T06:54:53.837Z,954.4
2022-10-04T06:55:55.529Z,954.4
2022-10-04T06:56:57.250Z,954.4
2022-10-04T06:57:59.359Z,954.4
2022-10-04T06:59:01.078Z,954.4
2022-10-04T07:00:02.718Z,954.4
2022-10-04T07:01:04.625Z,954.4
2022-10-04T07:02:06.649Z,954.4
2022-10-04T07:03:08.458Z,954.4
2022-10-04T07:04:10.118Z,954.4
2022-10-04T07:05:11.963Z,954.4
2022-10-04T07:06:13.910Z,954.5
2022-10-04T07:07:15.466Z,954.4
2022-10-04T07:08:17.020Z,954.4
2022-10-04T07:09:18.850Z,954.4
2022-10-04T07:10:20.497Z,954.5
2022-10-04T07:11:22.356Z,954.5
2022-10-04T07:12:24.185Z,954.5
2022-10-04T07:13:25.970Z,954.5
2022-10-04T07:14:27.822Z,954.5
2022-10-04T07:15:29.544Z,954.5
2022-10-04T07:16:31.385Z,954.5
2022-10-04T07:17:33.036Z,954.5
2022-10-04T07:18:35.101Z,954.5
2022-10-04T07:19:36.765Z,954.5
2022-10-04T07:20:38.348Z,954.5
2022-10-04T07:21:41.137Z,954.5
2022-10-04T07:22:43.426Z,954.6
2022-10-04T07:23:45.054Z,954.6
2022-10-04T07:24:46.911Z,954.6
2022-10-04T07:25:48.588Z,954.6
2022-10-04T07:26:50.409Z,954.6
2022-10-04T07:27:52.402Z,954.6
2022-10-04T07:28:54.263Z,954.6
2022-10-04T07:29:55.953Z,954.6
2022-10-04T07:30:57.877Z,954.6
2022-10-04T07:31:59.960Z,954.7
2022-10-04T07:33:01.633Z,954.7
2022-10-04T07:34:03.288Z,954.7
2022-10-04T07:35:04.908Z,954.6
2022-10-04T07:36:06.473Z,954.7
2022-10-04T07:37:08.198Z,954.7
2022-10-04T07:38:09.921Z,954.6
2022-10-04T07:39:11.587Z,954.7
2022-10-04T07:40:13.232Z,954.7
2022-10-04T07:41:14.927Z,954.7
2022-10-04T07:42:16.717Z,954.7
2022-10-04T07:43:18.465Z,954.7
2022-10-04T07:44:20.210Z,954.7
2022-10-04T07:45:21.989Z,954.7
2022-10-04T07:46:23.979Z,954.7
2022-10-04T07:47:25.930Z,954.8
2022-10-04T07:48:27.539Z,954.7
2022-10-04T07:49:29.073Z,954.7
2022-10-04T07:50:30.810Z,954.7
2022-10-04T07:51:32.337Z,954.7
2022-10-04T07:52:33.990Z,954.8
2022-10-04T07:53:35.630Z,954.8
2022-10-04T07:54:37.186Z,954.8
2022-10-04T07:55:41.860Z,954.8
2022-10-04T07:56:43.424Z,954.8
2022-10-04T07:57:44.970Z,954.8
2022-10-04T07:58:46.821Z,954.8
2022-10-04T07:59:48.619Z,954.9
2022-10-04T08:00:50.438Z,954.8
2022-10-04T08:01:52.410Z,954.8
2022-10-04T08:02:54.602Z,954.8
2022-10-04T08:03:56.493Z,954.8
2022-10-04T08:04:58.112Z,954.8
2022-10-04T08:05:59.686Z,954.9
2022-10-04T08:07:01.231Z,954.8
2022-10-04T08:08:02.858Z,954.8
2022-10-04T08:09:04.524Z,954.8
2022-10-04T08:10:08.883Z,954.8
2022-10-04T08:11:10.451Z,954.8
2022-10-04T08:12:12.122Z,954.8
2022-10-04T08:13:13.708Z,954.8
2022-10-04T08:14:15.300Z,954.8
2022-10-04T08:15:17.102Z,954.8
2022-10-04T08:16:18.964Z,954.8
2022-10-04T08:17:20.727Z,954.8
2022-10-04T08:18:22.277Z,954.8
2022-10-04T08:19:23.945Z,954.8
2022-10-04T08:20:25.593Z,954.8
2022-10-04T08:21:27.255Z,954.7
2022-10-04T08:22:28.839Z,954.8
2022-10-04T08:23:30.417Z,954.7
2022-10-04T08:24:32.069Z,954.8
2022-10-04T08:25:33.794Z,954.7
2022-10-04T08:26:35.642Z,954.7
2022-10-04T08:27:37.191Z,954.8
2022-10-04T08:28:38.856Z,954.8
2022-10-04T08:29:40.561Z,954.7
2022-10-04T08:30:42.629Z,954.7
2022-10-04T08:31:44.358Z,954.7
2022-10-04T08:32:45.867Z,954.8
2022-10-04T08:33:47.533Z,954.7
2022-10-04T08:34:49.119Z,954.8
2022-10-04T08:35:50.773Z,954.7
2022-10-04T08:36:52.424Z,954.8
2022-10-04T08:37:54.070Z,954.7
2022-10-04T08:38:55.697Z,954.7
2022-10-04T08:39:57.621Z,954.7
2022-10-04T08:40:59.495Z,954.7
2022-10-04T08:42:01.307Z,954.7
2022-10-04T08:43:02.995Z,954.7
2022-10-04T08:44:04.670Z,954.6
2022-10-04T08:45:06.491Z,954.7
2022-10-04T08:46:08.500Z,954.6
2022-10-04T08:47:10.223Z,954.6
2022-10-04T08:48:12.096Z,954.6
2022-10-04T08:49:13.743Z,954.6
2022-10-04T08:50:15.355Z,954.6
2022-10-04T08:51:17.096Z,954.6
2022-10-04T08:52:18.905Z,954.6
2022-10-04T08:53:20.453Z,954.6
2022-10-04T08:54:22.025Z,954.6
2022-10-04T08:55:23.682Z,954.5
2022-10-04T08:56:25.406Z,954.5
2022-10-04T08:57:27.113Z,954.6
2022-10-04T08:58:28.658Z,954.6
2022-10-04T08:59:30.229Z,954.6
2022-10-04T09:00:31.897Z,954.6
2022-10-04T09:01:34.025Z,954.6
2022-10-04T09:02:36.170Z,954.6
2022-10-04T09:03:38.071Z,954.6
2022-10-04T09:04:39.610Z,954.6
2022-10-04T09:05:41.138Z,954.6
2022-10-04T09:06:43.528Z,954.6
2022-10-04T09:07:46.031Z,954.5
2022-10-04T09:08:47.631Z,954.5
2022-10-04T09:09:49.261Z,954.6
2022-10-04T09:10:50.802Z,954.5
2022-10-04T09:11:52.344Z,954.5
2022-10-04T09:12:54.061Z,954.5
2022-10-04T09:13:55.672Z,954.6
2022-10-04T09:14:57.499Z,954.5
2022-10-04T09:15:59.428Z,954.5
2022-10-04T09:17:01.405Z,954.5
2022-10-04T09:18:03.138Z,954.5
2022-10-04T09:19:04.889Z,954.5
2022-10-04T09:20:39.753Z,954.6
2022-10-04T09:21:41.800Z,954.6
2022-10-04T09:22:43.434Z,954.6
2022-10-04T09:23:45.042Z,954.6
2022-10-04T09:24:46.872Z,954.7
2022-10-04T09:25:48.537Z,954.7
2022-10-04T09:26:50.304Z,954.7
2022-10-04T09:27:56.010Z,954.7
2022-10-04T09:29:05.458Z,954.7
2022-10-04T09:30:07.323Z,954.7
2022-10-04T09:31:09.489Z,954.7
2022-10-04T09:32:11.798Z,954.7
2022-10-04T09:33:14.218Z,954.7
2022-10-04T09:34:15.802Z,954.8
2022-10-04T09:35:17.580Z,954.8
2022-10-04T09:36:19.241Z,954.8
2022-10-04T09:37:20.907Z,954.7
2022-10-04T09:38:22.538Z,954.7
2022-10-04T09:39:31.616Z,954.7
2022-10-04T09:40:33.299Z,954.7
2022-10-04T09:41:34.961Z,954.7
2022-10-04T09:42:36.508Z,954.7
2022-10-04T09:43:38.264Z,954.8
2022-10-04T09:44:39.806Z,954.7
2022-10-04T09:45:41.645Z,954.7
2022-10-04T09:46:45.185Z,954.7
2022-10-04T09:47:47.835Z,954.7
2022-10-04T09:48:49.397Z,954.7
2022-10-04T09:49:51.021Z,954.8
2022-10-04T09:50:52.743Z,954.7
2022-10-04T09:51:54.287Z,954.7
2022-10-04T09:52:55.884Z,954.7
2022-10-04T09:53:57.636Z,954.7
2022-10-04T09:54:59.187Z,954.7
2022-10-04T09:56:00.867Z,954.7
2022-10-04T09:57:02.485Z,954.7
2022-10-04T09:58:04.021Z,954.6
2022-10-04T09:59:05.664Z,954.6
2022-10-04T10:00:07.213Z,954.7
2022-10-04T10:01:09.007Z,954.7
2022-10-04T10:02:10.830Z,954.7
2022-10-04T10:03:16.527Z,954.7
2022-10-04T10:04:18.426Z,954.6
2022-10-04T10:05:20.054Z,954.7
2022-10-04T10:06:21.671Z,954.7
2022-10-04T10:07:23.345Z,954.7
2022-10-04T10:08:28.767Z,954.7
2022-10-04T10:09:30.326Z,954.7
2022-10-04T10:10:31.951Z,954.7
2022-10-04T10:11:33.581Z,954.8
2022-10-04T10:12:35.199Z,954.8
2022-10-04T10:13:36.780Z,954.8
2022-10-04T10:14:38.408Z,954.8
2022-10-04T10:15:40.189Z,954.8
2022-10-04T10:16:43.048Z,954.8
2022-10-04T10:17:45.218Z,954.8
2022-10-04T10:18:47.108Z,954.8
2022-10-04T10:19:48.689Z,954.8
2022-10-04T10:20:50.241Z,954.8
2022-10-04T10:21:51.782Z,954.8
2022-10-04T10:22:53.374Z,954.8
2022-10-04T10:23:55.089Z,954.8
2022-10-04T10:24:58.897Z,954.8
2022-10-04T10:26:00.478Z,954.8
2022-10-04T10:27:02.082Z,954.8
2022-10-04T10:28:04.053Z,954.8
2022-10-04T10:29:05.787Z,954.7
2022-10-04T10:30:07.527Z,954.7
2022-10-04T10:31:09.489Z,954.7
2022-10-04T10:32:11.337Z,954.8
2022-10-04T10:33:13.156Z,954.7
2022-10-04T10:34:15.053Z,954.7
2022-10-04T10:35:16.721Z,954.8
2022-10-04T10:36:18.435Z,954.8
2022-10-04T10:37:19.964Z,954.7
2022-10-04T10:38:21.576Z,954.8
2022-10-04T10:39:23.177Z,954.8
2022-10-04T10:40:24.881Z,954.8
2022-10-04T10:41:26.520Z,954.8
2022-10-04T10:42:28.186Z,954.8
2022-10-04T10:43:29.714Z,954.8
2022-10-04T10:44:31.382Z,954.8
2022-10-04T10:45:33.018Z,954.8
2022-10-04T10:46:35.019Z,954.8
2022-10-04T10:47:36.761Z,954.9
2022-10-04T10:48:41.404Z,954.8
2022-10-04T10:49:43.110Z,954.9
2022-10-04T10:50:44.727Z,954.9
2022-10-04T10:51:46.459Z,954.9
2022-10-04T10:52:48.028Z,954.9
2022-10-04T10:53:49.636Z,954.9
2022-10-04T10:54:51.251Z,954.9
2022-10-04T10:55:52.800Z,954.8
2022-10-04T10:56:54.579Z,954.8
2022-10-04T10:57:56.235Z,954.8
2022-10-04T10:58:57.781Z,954.9
2022-10-04T10:59:59.433Z,954.8
2022-10-04T11:01:01.059Z,954.8
2022-10-04T11:02:03.028Z,954.8
2022-10-04T11:03:19.421Z,954.7
2022-10-04T11:04:27.203Z,954.8
2022-10-04T11:05:29.174Z,954.8
2022-10-04T11:06:30.825Z,954.8
2022-10-04T11:07:32.457Z,954.8
2022-10-04T11:08:33.999Z,954.8
2022-10-04T11:09:35.542Z,954.8
2022-10-04T11:10:37.205Z,954.8
2022-10-04T11:11:38.905Z,954.8
2022-10-04T11:12:40.544Z,954.9
2022-10-04T11:13:42.086Z,954.8
2022-10-04T11:14:43.725Z,954.8
2022-10-04T11:15:45.690Z,954.8
2022-10-04T11:16:48.515Z,954.8
2022-10-04T11:17:50.321Z,954.8
2022-10-04T11:18:51.862Z,954.8
2022-10-04T11:19:53.812Z,954.8
2022-10-04T11:20:55.729Z,954.8
2022-10-04T11:21:57.329Z,954.8
2022-10-04T11:22:59.006Z,954.8
2022-10-04T11:24:00.619Z,954.7
2022-10-04T11:25:02.350Z,954.8
2022-10-04T11:26:03.955Z,954.7
2022-10-04T11:27:05.740Z,954.8
2022-10-04T11:28:07.746Z,954.8
2022-10-04T11:29:09.514Z,954.8
2022-10-04T11:30:11.200Z,954.8
2022-10-04T11:31:13.008Z,954.8
2022-10-04T11:32:14.993Z,954.9
2022-10-04T11:33:16.776Z,954.9
2022-10-04T11:34:18.347Z,954.9
2022-10-04T11:35:20.027Z,954.9
2022-10-04T11:36:21.672Z,954.9
2022-10-04T11:37:23.238Z,954.9
2022-10-04T11:38:24.993Z,954.9
2022-10-04T11:39:26.717Z,954.9
2022-10-04T11:40:28.243Z,954.8
2022-10-04T11:41:30.024Z,954.9
2022-10-04T11:42:31.643Z,954.8
2022-10-04T11:43:33.291Z,954.9
2022-10-04T11:44:34.907Z,954.8
2022-10-04T11:45:36.522Z,954.8
2022-10-04T11:46:38.241Z,954.8
2022-10-04T11:47:40.179Z,954.9
2022-10-04T11:48:41.947Z,954.9
2022-10-04T11:49:43.493Z,954.9
2022-10-04T11:50:45.320Z,954.9
2022-10-04T11:51:46.920Z,954.9
2022-10-04T11:52:48.572Z,954.9
2022-10-04T11:53:50.119Z,954.9
2022-10-04T11:54:51.655Z,954.8
2022-10-04T11:55:53.238Z,954.8
2022-10-04T11:56:54.797Z,954.8
2022-10-04T11:57:56.556Z,954.9
2022-10-04T11:58:58.110Z,954.9
2022-10-04T11:59:59.918Z,954.9
2022-10-04T12:01:01.586Z,954.9
2022-10-04T12:02:03.248Z,954.9
2022-10-04T12:03:08.073Z,954.9
2022-10-04T12:04:10.385Z,954.9
2022-10-04T12:05:12.261Z,955
2022-10-04T12:06:14.096Z,954.9
2022-10-04T12:07:16.038Z,954.9
2022-10-04T12:08:17.736Z,954.9
2022-10-04T12:09:19.349Z,954.9
2022-10-04T12:10:20.924Z,954.9
2022-10-04T12:11:22.657Z,954.9
2022-10-04T12:12:24.320Z,954.9
2022-10-04T12:13:29.038Z,954.9
2022-10-04T12:14:30.761Z,954.9
2022-10-04T12:15:32.534Z,954.9
2022-10-04T12:16:34.591Z,954.8
2022-10-04T12:17:36.374Z,954.8
2022-10-04T12:18:37.894Z,954.9
2022-10-04T12:19:39.595Z,954.8
2022-10-04T12:20:41.181Z,954.8
2022-10-04T12:21:42.873Z,954.8
2022-10-04T12:22:44.521Z,954.8
2022-10-04T12:23:46.179Z,954.8
2022-10-04T12:24:47.908Z,954.8
2022-10-04T12:25:49.562Z,954.8
2022-10-04T12:26:51.326Z,954.8
2022-10-04T12:27:53.157Z,954.9
2022-10-04T12:28:54.914Z,954.8
2022-10-04T12:29:56.437Z,954.8
2022-10-04T12:30:58.103Z,954.9
2022-10-04T12:32:00.001Z,954.9
2022-10-04T12:33:01.795Z,954.8
2022-10-04T12:34:03.853Z,954.9
2022-10-04T12:35:05.732Z,954.9
2022-10-04T12:36:07.560Z,954.9
2022-10-04T12:37:09.190Z,954.9
2022-10-04T12:38:11.085Z,954.9
2022-10-04T12:39:12.809Z,954.9
2022-10-04T12:40:17.369Z,954.9
2022-10-04T12:41:19.054Z,954.8
2022-10-04T12:42:20.667Z,954.9
2022-10-04T12:43:24.425Z,954.9
2022-10-04T12:44:26.318Z,954.9
2022-10-04T12:45:28.116Z,954.8
2022-10-04T12:46:29.853Z,954.9
2022-10-04T12:47:31.582Z,954.8
2022-10-04T12:48:33.286Z,954.8
2022-10-04T12:49:34.866Z,954.8
2022-10-04T12:50:36.540Z,954.9
2022-10-04T12:51:38.140Z,954.9
2022-10-04T12:52:39.907Z,954.9
2022-10-04T12:53:41.692Z,954.9
2022-10-04T12:54:43.417Z,954.9
2022-10-04T12:55:45.031Z,954.9
2022-10-04T12:56:48.438Z,954.9
2022-10-04T12:57:50.509Z,954.9
2022-10-04T12:58:52.117Z,954.9
2022-10-04T12:59:53.787Z,954.9
2022-10-04T13:01:02.635Z,954.9
2022-10-04T13:02:04.569Z,954.9
2022-10-04T13:03:06.431Z,954.9
2022-10-04T13:04:07.998Z,954.9
2022-10-04T13:05:09.825Z,954.9
2022-10-04T13:06:11.519Z,955
2022-10-04T13:07:13.278Z,954.9
2022-10-04T13:08:14.901Z,954.9
2022-10-04T13:09:16.669Z,954.9
2022-10-04T13:10:26.683Z,954.9
2022-10-04T13:11:28.605Z,954.9
2022-10-04T13:12:30.256Z,954.9
2022-10-04T13:13:31.876Z,954.9
2022-10-04T13:14:33.506Z,954.8
2022-10-04T13:17:36.546Z,954.8
2022-10-04T13:18:38.326Z,954.9
2022-10-04T13:19:40.707Z,954.8
2022-10-04T13:20:42.494Z,954.8
2022-10-04T13:21:45.350Z,954.8